createdAt,value
2018-07-06T00:00:15.567Z,17.80
2018-07-06T00:04:30.311Z,17.70
2018-07-06T00:08:44.831Z,17.70
2018-07-06T00:12:59.522Z,17.60
2018-07-06T00:17:14.227Z,17.50
2018-07-06T00:21:29.086Z,17.50
2018-07-06T00:25:43.575Z,17.40
2018-07-06T00:29:58.288Z,17.30
2018-07-06T00:34:12.774Z,17.20
2018-07-06T00:38:27.551Z,17.20
2018-07-06T00:42:42.283Z,17.10
2018-07-06T00:46:56.816Z,17.00
2018-07-06T00:55:20.192Z,16.90
2018-07-06T00:59:34.756Z,16.90
2018-07-06T01:03:49.408Z,16.80
2018-07-06T01:08:03.936Z,16.80
2018-07-06T01:12:24.013Z,16.80
2018-07-06T01:16:38.628Z,16.70
2018-07-06T01:20:53.387Z,16.70
2018-07-06T01:25:08.131Z,16.70
2018-07-06T01:29:22.898Z,16.70
2018-07-06T01:33:37.616Z,16.70
2018-07-06T01:37:52.260Z,16.70
2018-07-06T01:42:06.891Z,16.70
2018-07-06T01:46:21.532Z,16.70
2018-07-06T01:50:36.334Z,16.80
2018-07-06T01:54:51.210Z,16.80
2018-07-06T01:59:05.703Z,16.80
2018-07-06T02:03:20.423Z,16.90
2018-07-06T02:07:35.235Z,16.90
2018-07-06T02:11:49.796Z,16.90
2018-07-06T02:16:05.044Z,17.00
2018-07-06T02:20:19.891Z,17.00
2018-07-06T02:24:34.530Z,17.10
2018-07-06T02:28:49.067Z,17.10
2018-07-06T02:33:03.534Z,17.10
2018-07-06T02:37:18.088Z,17.20
2018-07-06T02:41:32.655Z,17.20
2018-07-06T02:45:47.207Z,17.30
2018-07-06T02:50:01.873Z,17.30
2018-07-06T02:54:17.504Z,17.30
2018-07-06T02:58:32.237Z,17.30
2018-07-06T03:02:46.897Z,17.30
2018-07-06T03:07:01.567Z,17.40
2018-07-06T03:11:16.140Z,17.40
2018-07-06T03:15:30.674Z,17.40
2018-07-06T03:19:45.120Z,17.40
2018-07-06T03:23:59.723Z,17.40
2018-07-06T03:28:14.299Z,17.40
2018-07-06T03:32:28.747Z,17.50
2018-07-06T03:36:43.333Z,17.50
2018-07-06T03:40:57.872Z,17.50
2018-07-06T03:45:12.487Z,17.50
2018-07-06T03:49:26.903Z,17.60
2018-07-06T03:53:41.541Z,17.60
2018-07-06T03:57:56.143Z,17.60
2018-07-06T04:02:10.622Z,17.60
2018-07-06T04:06:25.404Z,17.60
2018-07-06T04:10:40.070Z,17.60
2018-07-06T04:14:54.747Z,17.60
2018-07-06T04:19:11.061Z,17.70
2018-07-06T04:23:25.760Z,17.70
2018-07-06T04:31:48.927Z,17.70
2018-07-06T04:36:03.658Z,17.70
2018-07-06T04:40:18.164Z,17.80
2018-07-06T04:44:32.675Z,17.80
2018-07-06T04:48:47.171Z,17.80
2018-07-06T04:53:01.732Z,17.80
2018-07-06T04:57:16.393Z,17.80
2018-07-06T05:01:31.104Z,17.80
2018-07-06T05:05:45.877Z,17.90
2018-07-06T05:10:00.665Z,17.90
2018-07-06T05:14:15.556Z,17.90
2018-07-06T05:18:30.238Z,17.90
2018-07-06T05:22:45.249Z,17.90
2018-07-06T05:27:00.056Z,17.90
2018-07-06T05:31:14.824Z,18.00
2018-07-06T05:35:29.646Z,18.00
2018-07-06T05:39:44.359Z,18.00
2018-07-06T05:43:59.307Z,18.00
2018-07-06T05:48:14.107Z,18.00
2018-07-06T05:52:28.735Z,18.00
2018-07-06T05:56:43.461Z,18.00
2018-07-06T06:00:57.928Z,18.00
2018-07-06T06:05:12.575Z,18.10
2018-07-06T06:09:16.187Z,18.10
2018-07-06T06:13:19.540Z,18.10
2018-07-06T06:17:22.886Z,18.20
2018-07-06T06:21:26.273Z,18.20
2018-07-06T06:25:29.644Z,18.30
2018-07-06T06:29:33.026Z,18.30
2018-07-06T06:33:36.434Z,18.40
2018-07-06T06:37:39.751Z,18.40
2018-07-06T06:41:43.117Z,18.40
2018-07-06T06:45:46.471Z,18.40
2018-07-06T06:49:49.855Z,18.50
2018-07-06T06:53:53.254Z,18.50
2018-07-06T07:01:59.699Z,18.60
2018-07-06T07:06:03.056Z,18.60
2018-07-06T07:14:09.517Z,18.70
2018-07-06T07:18:12.871Z,18.70
2018-07-06T07:22:16.394Z,18.70
2018-07-06T07:26:19.771Z,18.80
2018-07-06T07:30:23.164Z,18.80
2018-07-06T07:34:26.563Z,18.80
2018-07-06T07:38:29.969Z,18.80
2018-07-06T07:42:34.043Z,18.80
2018-07-06T07:46:37.488Z,18.80
2018-07-06T07:50:52.045Z,18.80
2018-07-06T07:54:56.312Z,18.80
2018-07-06T07:58:59.886Z,18.90
2018-07-06T08:03:03.277Z,18.90
2018-07-06T08:07:06.788Z,18.90
2018-07-06T08:11:10.219Z,19.00
2018-07-06T08:15:13.568Z,19.00
2018-07-06T08:19:16.937Z,19.00
2018-07-06T08:23:20.296Z,19.10
2018-07-06T08:27:23.634Z,19.10
2018-07-06T08:31:26.967Z,19.10
2018-07-06T08:35:41.603Z,19.20
2018-07-06T08:39:45.133Z,19.30
2018-07-06T08:43:48.438Z,19.50
2018-07-06T08:47:51.947Z,19.60
2018-07-06T08:51:55.577Z,19.70
2018-07-06T08:55:58.915Z,19.80
2018-07-06T09:00:02.277Z,19.90
2018-07-06T09:04:05.785Z,19.90
2018-07-06T09:08:09.135Z,19.90
2018-07-06T09:12:12.528Z,19.90
2018-07-06T09:16:15.883Z,20.00
2018-07-06T09:20:19.459Z,20.10
2018-07-06T09:24:22.575Z,20.20
2018-07-06T09:28:25.903Z,20.20
2018-07-06T09:36:32.286Z,20.20
2018-07-06T09:40:35.646Z,20.20
2018-07-06T09:44:38.990Z,20.30
2018-07-06T09:48:42.320Z,20.30
2018-07-06T09:52:45.628Z,20.30
2018-07-06T09:56:48.992Z,20.30
2018-07-06T10:00:57.701Z,20.40
2018-07-06T10:05:01.033Z,20.40
2018-07-06T10:09:05.264Z,20.50
2018-07-06T10:13:08.644Z,20.60
2018-07-06T10:17:12.028Z,20.70
2018-07-06T10:21:15.355Z,20.80
2018-07-06T10:25:18.698Z,21.00
2018-07-06T10:29:48.402Z,21.10
2018-07-06T10:33:51.760Z,21.40
2018-07-06T10:37:55.073Z,21.60
2018-07-06T10:41:58.415Z,21.90
2018-07-06T10:46:01.761Z,22.10
2018-07-06T10:50:05.107Z,22.40
2018-07-06T10:54:08.418Z,22.70
2018-07-06T10:58:11.823Z,22.80
2018-07-06T11:02:15.264Z,23.00
2018-07-06T11:06:18.643Z,23.00
2018-07-06T11:14:25.138Z,23.20
2018-07-06T11:18:28.583Z,23.50
2018-07-06T11:22:31.882Z,23.70
2018-07-06T11:26:35.254Z,23.90
2018-07-06T11:30:38.614Z,24.10
2018-07-06T11:34:41.923Z,24.20
2018-07-06T11:38:45.259Z,24.30
2018-07-06T11:42:48.690Z,24.40
2018-07-06T11:46:52.026Z,24.50
2018-07-06T11:50:55.455Z,24.70
2018-07-06T11:54:58.783Z,24.80
2018-07-06T11:59:02.181Z,24.90
2018-07-06T12:03:05.529Z,25.00
2018-07-06T12:07:08.865Z,25.20
2018-07-06T12:11:13.155Z,25.30
2018-07-06T12:15:16.538Z,25.30
2018-07-06T12:19:19.886Z,25.40
2018-07-06T12:23:23.938Z,25.60
2018-07-06T12:27:27.511Z,25.70
2018-07-06T12:31:30.984Z,25.90
2018-07-06T12:35:34.380Z,26.00
2018-07-06T12:39:37.830Z,26.00
2018-07-06T12:43:41.167Z,26.00
2018-07-06T12:47:45.229Z,26.00
2018-07-06T12:51:48.853Z,26.20
2018-07-06T12:55:52.243Z,26.30
2018-07-06T12:59:55.579Z,26.30
2018-07-06T13:03:59.619Z,26.40
2018-07-06T13:08:02.946Z,26.40
2018-07-06T13:12:06.341Z,26.40
2018-07-06T13:16:09.695Z,26.50
2018-07-06T13:20:13.558Z,26.50
2018-07-06T13:24:16.913Z,26.60
2018-07-06T13:28:20.269Z,26.70
2018-07-06T13:32:23.686Z,26.80
2018-07-06T13:36:27.040Z,26.90
2018-07-06T13:40:30.375Z,27.00
2018-07-06T13:44:34.103Z,27.10
2018-07-06T13:48:37.632Z,27.20
2018-07-06T13:52:41.211Z,27.30
2018-07-06T13:56:45.483Z,27.40
2018-07-06T14:00:49.511Z,27.40
2018-07-06T14:04:52.994Z,27.40
2018-07-06T14:08:56.371Z,27.40
2018-07-06T14:12:59.796Z,27.50
2018-07-06T14:17:03.161Z,27.50
2018-07-06T14:21:06.583Z,27.60
2018-07-06T14:25:09.952Z,27.60
2018-07-06T14:29:13.375Z,27.60
2018-07-06T14:33:16.743Z,27.70
2018-07-06T14:37:20.133Z,27.60
2018-07-06T14:41:23.463Z,27.70
2018-07-06T14:45:26.828Z,27.70
2018-07-06T14:49:34.498Z,27.70
2018-07-06T14:53:37.884Z,27.70
2018-07-06T14:57:41.271Z,27.70
2018-07-06T15:01:44.684Z,27.80
2018-07-06T15:05:48.162Z,27.90
2018-07-06T15:09:51.527Z,27.90
2018-07-06T15:13:54.882Z,27.90
2018-07-06T15:17:58.291Z,27.80
2018-07-06T15:22:01.614Z,27.80
2018-07-06T15:26:05.532Z,27.80
2018-07-06T15:30:09.001Z,27.80
2018-07-06T15:34:12.347Z,27.90
2018-07-06T15:38:15.817Z,27.80
2018-07-06T15:42:19.170Z,27.90
2018-07-06T15:46:22.548Z,27.90
2018-07-06T15:50:25.970Z,28.00
2018-07-06T15:54:29.388Z,28.20
2018-07-06T15:58:32.864Z,28.40
2018-07-06T16:02:36.252Z,28.60
2018-07-06T16:10:43.863Z,28.80
2018-07-06T16:14:47.273Z,28.90
2018-07-06T16:18:50.687Z,29.00
2018-07-06T16:22:54.099Z,29.20
2018-07-06T16:26:57.511Z,29.30
2018-07-06T16:31:01.019Z,29.40
2018-07-06T16:35:04.429Z,29.50
2018-07-06T16:39:07.820Z,29.50
2018-07-06T16:43:11.171Z,29.40
2018-07-06T16:47:14.596Z,29.30
2018-07-06T16:51:18.391Z,29.10
2018-07-06T16:55:21.970Z,28.90
2018-07-06T16:59:25.372Z,28.70
2018-07-06T17:03:28.735Z,28.40
2018-07-06T17:07:32.161Z,28.20
2018-07-06T17:15:38.899Z,27.80
2018-07-06T17:19:42.285Z,27.60
2018-07-06T17:23:45.773Z,27.40
2018-07-06T17:27:49.170Z,27.30
2018-07-06T17:31:52.502Z,27.00
2018-07-06T17:35:55.853Z,26.80
2018-07-06T17:39:59.974Z,26.70
2018-07-06T17:44:03.329Z,26.50
2018-07-06T17:48:06.707Z,26.30
2018-07-06T17:52:10.031Z,26.10
2018-07-06T17:56:13.419Z,25.90
2018-07-06T18:00:16.771Z,25.80
2018-07-06T18:04:20.123Z,25.60
2018-07-06T18:08:23.449Z,25.40
2018-07-06T18:12:26.810Z,25.10
2018-07-06T18:16:30.462Z,25.00
2018-07-06T18:20:33.867Z,24.80
2018-07-06T18:24:37.198Z,24.60
2018-07-06T18:28:40.519Z,24.40
2018-07-06T18:32:43.886Z,24.20
2018-07-06T18:36:47.375Z,24.00
2018-07-06T18:40:50.711Z,23.70
2018-07-06T18:44:54.054Z,23.60
2018-07-06T18:48:58.567Z,23.40
2018-07-06T18:53:01.903Z,23.30
2018-07-06T18:57:05.292Z,23.10
2018-07-06T19:01:08.639Z,23.00
2018-07-06T19:09:15.131Z,22.60
2018-07-06T19:17:22.186Z,22.30
2018-07-06T19:21:25.805Z,22.20
2018-07-06T19:25:29.158Z,22.00
2018-07-06T19:29:32.488Z,21.80
2018-07-06T19:33:35.855Z,21.70
2018-07-06T19:37:39.314Z,21.50
2018-07-06T19:41:42.661Z,21.40
2018-07-06T19:45:46.107Z,21.30
2018-07-06T19:49:49.527Z,21.10
2018-07-06T19:53:52.865Z,21.00
2018-07-06T19:57:56.339Z,20.80
2018-07-06T20:01:59.867Z,20.70
2018-07-06T20:06:03.207Z,20.60
2018-07-06T20:10:06.607Z,20.50
2018-07-06T20:14:09.990Z,20.40
2018-07-06T20:18:13.355Z,20.30
2018-07-06T20:22:16.708Z,20.10
2018-07-06T20:26:20.051Z,20.00
2018-07-06T20:30:23.501Z,19.90
2018-07-06T20:34:26.887Z,19.80
2018-07-06T20:38:30.267Z,19.70
2018-07-06T20:42:33.640Z,19.60
2018-07-06T20:46:37.027Z,19.50
2018-07-06T20:50:40.368Z,19.30
2018-07-06T20:54:44.683Z,19.20
2018-07-06T20:58:48.119Z,19.10
2018-07-06T21:02:53.816Z,19.00
2018-07-06T21:06:57.559Z,18.80
2018-07-06T21:11:01.032Z,18.80
2018-07-06T21:15:04.445Z,18.70
2018-07-06T21:19:07.835Z,18.60
2018-07-06T21:23:11.150Z,18.60
2018-07-06T21:27:14.514Z,18.50
2018-07-06T21:31:17.947Z,18.50
2018-07-06T21:35:21.271Z,18.40
2018-07-06T21:39:24.594Z,18.30
2018-07-06T21:47:31.056Z,18.10
2018-07-06T21:51:34.381Z,18.00
2018-07-06T21:55:38.324Z,18.00
2018-07-06T22:03:45.473Z,17.80
2018-07-06T22:07:48.850Z,17.70
2018-07-06T22:11:53.552Z,17.60
2018-07-06T22:15:57.016Z,17.50
2018-07-06T22:20:00.362Z,17.40
2018-07-06T22:24:03.678Z,17.30
2018-07-06T22:28:07.030Z,17.20
2018-07-06T22:32:10.380Z,17.10
2018-07-06T22:36:13.670Z,17.00
2018-07-06T22:40:17.599Z,16.90
2018-07-06T22:44:20.922Z,16.80
2018-07-06T22:52:27.291Z,16.60
2018-07-06T22:56:30.636Z,16.50
2018-07-06T23:00:34.013Z,16.40
2018-07-06T23:04:37.355Z,16.30
2018-07-06T23:08:40.697Z,16.20
2018-07-06T23:12:44.048Z,16.10
2018-07-06T23:16:47.361Z,16.10
2018-07-06T23:20:50.694Z,16.00
2018-07-06T23:24:54.025Z,15.90
2018-07-06T23:28:57.375Z,15.80
2018-07-06T23:33:01.768Z,15.80
2018-07-06T23:37:05.099Z,15.70
2018-07-06T23:41:08.422Z,15.60
2018-07-06T23:45:11.772Z,15.50
2018-07-06T23:49:15.087Z,15.40
2018-07-06T23:53:18.423Z,15.40
2018-07-06T23:57:21.776Z,15.30
